Details for LATAM Cargo (Chile) at KMIA




Go Back


Latest METAR
Local Time

KMIA 061753Z VRB05KT 10SM SCT027TCU SCT060 BKN080 BKN250 29/21 A3000 RMK AO2 SLP160 TCU N-NE T02940211 10294 20239 58009
06/04/2020, 14:11:45

Description
Results
LATAM Cargo (Chile) Logo
Number of Pilots based at KMIA
0 Pilots Based here
Number of LATAM Cargo (Chile) Flights Departed from KMIA
0 Flights Departed
Number of LATAM Cargo (Chile) Flights Arrived at KMIA
0 Flights Arrived
Number of LATAM Cargo (Chile) Schedules Departing from KMIA
12 Schedules
Number of LATAM Cargo (Chile) Schedules Arriving at KMIA
13 Schedules
Number of LATAM Cargo (Chile) Schedules Departing from KMIA availible today
1 Schedules Today
Number of LATAM Cargo (Chile) Schedules Arriving at KMIA availible today
0 Schedules Today
Average Landing Rate at KMIA
-204 fpm
LATAM Cargo (Chile) Average Landing Rate at KMIA
0 fpm
Total Fuel Purchased at KMIA by LATAM Cargo (Chile)
0.00 kgs / 0.00 lbs

Pilots Based at KMIA


Pilot ID
Pilot Name
Pilot Rank
No. of Flights
No. of Flying Hours
There are no pilots assigned to this hub!   Will you be the first?